Time;durP1;ratioP1;P1;durP2;ratioP2;P2;SDS_P1;SDS_P2;PMS_P1;PMS_P2;Temp;Humidity;BMP_temperature;BMP_pressure;BME280_temperature;BME280_humidity;BME280_pressure;Samples;Min_cycle;Max_cycle;Signal;HPM_P1;HPM_P2
2023/01/21 00:00:52;;;;;;;14.47;4.80;;;1.50;99.90;;;;;;4981403;29;20448;-42
2023/01/21 00:03:19;;;;;;;12.13;5.73;;;1.50;99.90;;;;;;4981505;29;20428;-40
2023/01/21 00:05:46;;;;;;;7.50;5.60;;;1.50;99.90;;;;;;4981580;29;20472;-43
2023/01/21 00:08:14;;;;;;;15.40;5.43;;;1.50;99.90;;;;;;4980957;28;20495;-40
2023/01/21 00:10:41;;;;;;;11.47;5.70;;;1.50;99.90;;;;;;4981457;28;20440;-43
2023/01/21 00:13:08;;;;;;;7.37;4.03;;;1.50;99.90;;;;;;4981245;28;20535;-46
2023/01/21 00:15:35;;;;;;;9.43;4.73;;;1.50;99.90;;;;;;4981840;28;20425;-39
2023/01/21 00:18:02;;;;;;;10.17;5.80;;;1.50;99.90;;;;;;4981581;28;20491;-40
2023/01/21 00:20:29;;;;;;;14.43;5.60;;;1.50;99.90;;;;;;4981140;28;20483;-40
2023/01/21 00:22:57;;;;;;;9.23;4.70;;;1.50;99.90;;;;;;4981295;28;20448;-43
2023/01/21 00:25:26;;;;;;;6.80;4.70;;;1.50;99.90;;;;;;4980893;29;20556;-39
2023/01/21 00:27:52;;;;;;;20.77;6.13;;;1.50;99.90;;;;;;4980941;28;20440;-46
2023/01/21 00:30:19;;;;;;;16.60;4.60;;;1.40;99.90;;;;;;4980705;29;20424;-42
2023/01/21 00:32:48;;;;;;;7.40;4.50;;;1.40;99.90;;;;;;4980264;29;20456;-41
2023/01/21 00:35:15;;;;;;;7.80;4.40;;;1.40;99.90;;;;;;4980314;29;20482;-40
2023/01/21 00:37:42;;;;;;;4.20;2.60;;;1.40;99.90;;;;;;4980569;29;20443;-38
2023/01/21 00:40:10;;;;;;;8.73;4.97;;;1.40;99.90;;;;;;4980510;28;20467;-46
2023/01/21 00:42:38;;;;;;;8.80;3.77;;;1.30;99.90;;;;;;4980520;28;20436;-43
2023/01/21 00:45:06;;;;;;;11.30;5.50;;;1.30;99.90;;;;;;4980574;29;20483;-49
2023/01/21 00:47:33;;;;;;;10.83;4.53;;;1.80;99.90;;;;;;4980384;28;20508;-40
2023/01/21 00:50:00;;;;;;;5.47;3.53;;;1.90;99.90;;;;;;4980074;29;20479;-40
2023/01/21 00:52:26;;;;;;;9.33;4.23;;;1.80;99.90;;;;;;4980374;29;20448;-41
2023/01/21 00:54:53;;;;;;;5.27;2.93;;;1.60;99.90;;;;;;4979714;29;20927;-41
2023/01/21 00:57:20;;;;;;;9.77;4.23;;;1.50;99.90;;;;;;4980031;29;20476;-40
2023/01/21 00:59:48;;;;;;;8.37;5.10;;;1.50;99.90;;;;;;4980241;28;20451;-41
2023/01/21 01:02:15;;;;;;;6.70;3.60;;;1.50;99.90;;;;;;4979875;29;20439;-41
2023/01/21 01:04:42;;;;;;;9.67;4.30;;;1.40;99.90;;;;;;4979832;29;20430;-39
2023/01/21 01:07:10;;;;;;;10.60;3.90;;;1.40;99.90;;;;;;4979792;28;20452;-42
2023/01/21 01:09:37;;;;;;;7.93;4.30;;;1.40;99.90;;;;;;4979844;28;20467;-43
2023/01/21 01:12:04;;;;;;;7.83;5.03;;;1.40;99.90;;;;;;4980003;29;20526;-41
2023/01/21 01:14:31;;;;;;;6.50;4.00;;;1.40;99.90;;;;;;4979826;28;20530;-39
2023/01/21 01:16:59;;;;;;;12.00;5.53;;;1.40;99.90;;;;;;4979956;29;20444;-41
2023/01/21 01:19:26;;;;;;;9.50;4.80;;;1.50;99.90;;;;;;4980115;29;20432;-43
2023/01/21 01:21:53;;;;;;;12.80;5.67;;;1.40;99.90;;;;;;4979858;29;20476;-42
2023/01/21 01:24:20;;;;;;;9.00;4.20;;;1.50;99.90;;;;;;4979601;29;20448;-42
2023/01/21 01:26:46;;;;;;;9.17;4.23;;;1.50;99.90;;;;;;4979718;29;20435;-40
2023/01/21 01:29:14;;;;;;;7.50;4.47;;;1.60;99.90;;;;;;4979182;28;20455;-42
2023/01/21 01:31:42;;;;;;;5.43;3.60;;;1.60;99.90;;;;;;4979084;28;20470;-44
2023/01/21 01:34:10;;;;;;;11.20;5.20;;;1.60;99.90;;;;;;4978745;29;20559;-39
2023/01/21 01:36:37;;;;;;;9.40;4.17;;;1.60;99.90;;;;;;4979458;29;20464;-42
2023/01/21 01:39:05;;;;;;;11.60;4.97;;;1.50;99.90;;;;;;4976083;29;20523;-45
2023/01/21 01:41:34;;;;;;;7.83;4.43;;;1.60;99.90;;;;;;4979405;29;20467;-42
2023/01/21 01:44:02;;;;;;;11.70;5.43;;;1.50;99.90;;;;;;4979099;29;20463;-40
2023/01/21 01:46:31;;;;;;;8.20;4.70;;;1.50;99.90;;;;;;4966804;29;20460;-39
2023/01/21 01:49:07;;;;;;;10.20;4.00;;;1.50;99.90;;;;;;4975002;29;20478;-40
2023/01/21 01:51:44;;;;;;;8.87;4.00;;;1.50;99.90;;;;;;4977227;28;20412;-41
2023/01/21 01:54:14;;;;;;;9.13;5.10;;;1.50;99.90;;;;;;4978591;28;20451;-41
2023/01/21 01:56:43;;;;;;;12.60;5.93;;;1.50;99.90;;;;;;4979627;28;20452;-46
2023/01/21 01:59:10;;;;;;;9.20;4.50;;;1.50;99.90;;;;;;4979098;29;20494;-41
2023/01/21 02:01:38;;;;;;;11.00;5.70;;;1.50;99.90;;;;;;4978216;29;20444;-43
2023/01/21 02:04:08;;;;;;;11.00;4.43;;;1.60;99.90;;;;;;4977642;29;20456;-42
2023/01/21 02:06:37;;;;;;;8.63;4.80;;;1.60;99.90;;;;;;4978911;28;20436;-45
2023/01/21 02:09:05;;;;;;;10.50;5.07;;;1.60;99.90;;;;;;4979074;28;20479;-43
2023/01/21 02:11:32;;;;;;;13.20;5.37;;;1.70;99.90;;;;;;4979054;29;20528;-41
2023/01/21 02:14:00;;;;;;;18.93;7.77;;;1.70;99.90;;;;;;4979063;29;20495;-43
2023/01/21 02:17:05;;;;;;;15.73;6.10;;;1.70;99.90;;;;;;4978963;29;20499;-43
2023/01/21 02:20:18;;;;;;;14.23;5.17;;;1.80;99.90;;;;;;4978983;29;20444;-40
2023/01/21 02:22:56;;;;;;;9.53;5.07;;;1.80;99.90;;;;;;4978963;29;20496;-43
2023/01/21 02:25:47;;;;;;;17.87;7.70;;;1.70;99.90;;;;;;4979062;28;20508;-42
2023/01/21 02:29:02;;;;;;;9.97;5.23;;;1.70;99.90;;;;;;4969003;29;20468;-43
2023/01/21 02:31:46;;;;;;;10.40;5.37;;;1.70;99.90;;;;;;4972860;29;20492;-44
2023/01/21 02:34:23;;;;;;;14.17;5.50;;;1.70;99.90;;;;;;4978893;28;20471;-43
2023/01/21 02:37:09;;;;;;;13.13;5.53;;;1.70;99.90;;;;;;4977985;29;20462;-40
2023/01/21 02:39:48;;;;;;;18.67;7.20;;;1.80;99.90;;;;;;4978189;29;20517;-44
2023/01/21 02:42:22;;;;;;;10.57;5.40;;;1.80;99.90;;;;;;4978563;29;20447;-45
2023/01/21 02:44:57;;;;;;;8.83;5.40;;;1.80;99.90;;;;;;4978626;29;20423;-41
2023/01/21 02:47:29;;;;;;;15.37;6.07;;;1.80;99.90;;;;;;4978777;29;20482;-42
2023/01/21 02:50:01;;;;;;;22.63;6.17;;;1.90;99.90;;;;;;4978683;29;20435;-41
2023/01/21 02:52:28;;;;;;;13.73;6.87;;;1.90;99.90;;;;;;4973973;29;20432;-43
2023/01/21 02:54:57;;;;;;;25.70;7.20;;;1.90;99.90;;;;;;4976875;29;20483;-45
2023/01/21 02:57:41;;;;;;;16.60;6.47;;;1.90;99.90;;;;;;4978573;29;20424;-42
2023/01/21 03:00:15;;;;;;;12.03;6.60;;;1.90;99.90;;;;;;4967877;29;20572;-42
2023/01/21 03:03:17;;;;;;;10.00;4.57;;;1.90;99.90;;;;;;4976788;29;20420;-41
2023/01/21 03:06:11;;;;;;;15.10;5.77;;;2.00;99.90;;;;;;4978676;28;20495;-43
2023/01/21 03:08:44;;;;;;;16.63;6.43;;;2.00;99.90;;;;;;4975523;29;20455;-43
2023/01/21 03:11:15;;;;;;;13.93;4.80;;;2.00;99.90;;;;;;4981623;29;20435;-43
2023/01/21 03:19:21;;;;;;;18.10;7.43;;;2.00;99.90;;;;;;4981194;29;20557;-41
2023/01/21 03:21:50;;;;;;;16.70;7.33;;;2.00;99.90;;;;;;4981383;28;20483;-41
2023/01/21 03:24:18;;;;;;;16.53;5.70;;;2.00;99.90;;;;;;4981584;29;20471;-43
2023/01/21 03:26:50;;;;;;;10.17;5.80;;;2.00;99.90;;;;;;4981712;29;20460;-42
2023/01/21 03:29:21;;;;;;;16.37;7.37;;;2.00;99.90;;;;;;4981436;29;20439;-42
2023/01/21 03:31:51;;;;;;;15.27;6.70;;;2.00;99.90;;;;;;4980787;29;20432;-43
2023/01/21 03:34:19;;;;;;;14.50;6.60;;;2.00;99.90;;;;;;4977730;29;20519;-42
2023/01/21 03:36:52;;;;;;;13.77;6.73;;;2.10;99.90;;;;;;4979798;28;20471;-39
2023/01/21 03:39:28;;;;;;;17.77;7.27;;;2.10;99.90;;;;;;4981259;29;20423;-42
2023/01/21 03:41:55;;;;;;;15.53;6.07;;;2.10;99.90;;;;;;4981120;28;20463;-39
2023/01/21 03:44:22;;;;;;;13.40;7.10;;;2.10;99.90;;;;;;4981221;28;20448;-40
2023/01/21 03:46:56;;;;;;;14.10;7.80;;;2.10;99.90;;;;;;4981211;29;20444;-46
2023/01/21 03:49:29;;;;;;;15.13;6.43;;;2.20;99.90;;;;;;4981436;29;20463;-41
2023/01/21 03:51:59;;;;;;;22.07;6.63;;;2.20;99.90;;;;;;4981198;29;20491;-41
2023/01/21 03:54:26;;;;;;;11.90;4.93;;;2.20;99.90;;;;;;4980791;29;20491;-39
2023/01/21 03:56:53;;;;;;;11.90;5.60;;;2.20;99.90;;;;;;4981223;29;20424;-43
2023/01/21 03:59:20;;;;;;;11.70;5.30;;;2.20;99.90;;;;;;4980749;28;20462;-41
2023/01/21 04:01:47;;;;;;;10.33;5.50;;;2.20;99.90;;;;;;4980722;29;20471;-42
2023/01/21 04:04:14;;;;;;;11.80;6.43;;;2.20;99.90;;;;;;4980753;29;20436;-41
2023/01/21 04:06:41;;;;;;;16.93;5.57;;;2.20;99.90;;;;;;4980468;29;20478;-42
2023/01/21 04:09:11;;;;;;;9.90;5.33;;;2.10;99.90;;;;;;4980826;28;20408;-42
2023/01/21 04:11:37;;;;;;;10.60;4.47;;;2.10;99.90;;;;;;4980731;29;20455;-40
2023/01/21 04:14:04;;;;;;;11.40;5.07;;;2.20;99.90;;;;;;4980681;29;20483;-43
2023/01/21 04:16:31;;;;;;;8.10;4.23;;;2.20;99.90;;;;;;4980583;29;20459;-42
2023/01/21 04:18:58;;;;;;;12.50;4.60;;;2.10;99.90;;;;;;4979246;28;20459;-40
2023/01/21 04:21:25;;;;;;;11.87;3.93;;;2.20;99.90;;;;;;4980384;29;20435;-43
2023/01/21 04:23:52;;;;;;;10.13;4.60;;;2.10;99.90;;;;;;4980585;29;20471;-45
2023/01/21 04:26:20;;;;;;;10.40;5.57;;;2.10;99.90;;;;;;4980497;28;20472;-44
2023/01/21 04:28:47;;;;;;;9.17;5.00;;;2.10;99.90;;;;;;4980589;28;20436;-43
2023/01/21 04:31:13;;;;;;;8.40;4.30;;;2.10;99.90;;;;;;4980609;29;20451;-40
2023/01/21 04:33:40;;;;;;;5.60;3.70;;;2.00;99.90;;;;;;4980862;29;20419;-37
2023/01/21 04:36:07;;;;;;;15.60;5.77;;;2.00;99.90;;;;;;4980650;29;20470;-40
2023/01/21 04:38:34;;;;;;;7.20;4.47;;;2.00;99.90;;;;;;4981106;29;21040;-43
2023/01/21 04:41:01;;;;;;;8.47;4.03;;;2.10;99.90;;;;;;4980969;28;20452;-39
2023/01/21 04:43:29;;;;;;;8.10;4.30;;;2.10;99.90;;;;;;4980454;29;20454;-41
2023/01/21 04:45:56;;;;;;;8.37;4.73;;;2.10;99.90;;;;;;4980079;29;20447;-39
2023/01/21 04:48:23;;;;;;;7.77;3.80;;;2.00;99.90;;;;;;4971229;28;20760;-43
2023/01/21 04:50:50;;;;;;;8.80;4.10;;;2.00;99.90;;;;;;4975155;29;20452;-39
2023/01/21 04:53:16;;;;;;;16.10;8.43;;;1.90;99.90;;;;;;4980505;28;20428;-42
2023/01/21 04:55:43;;;;;;;7.20;3.70;;;1.90;99.90;;;;;;4980085;28;20479;-44
2023/01/21 04:58:10;;;;;;;5.90;3.37;;;1.90;99.90;;;;;;4979968;28;20443;-42
2023/01/21 05:00:38;;;;;;;4.73;3.50;;;1.90;99.90;;;;;;4975520;29;20416;-46
2023/01/21 05:03:05;;;;;;;8.10;3.50;;;1.90;99.90;;;;;;4979626;28;20467;-43
2023/01/21 05:05:32;;;;;;;7.40;3.33;;;1.90;99.90;;;;;;4979699;29;20444;-40
2023/01/21 05:07:59;;;;;;;9.53;3.73;;;1.90;99.90;;;;;;4979961;29;20444;-40
2023/01/21 05:10:28;;;;;;;5.37;4.10;;;1.90;99.90;;;;;;4980229;29;20456;-39
2023/01/21 05:12:55;;;;;;;4.20;3.57;;;1.90;99.90;;;;;;4979610;29;20444;-43
2023/01/21 05:15:22;;;;;;;11.03;3.83;;;1.90;99.90;;;;;;4979613;29;20587;-40
2023/01/21 05:17:50;;;;;;;8.87;3.83;;;1.90;99.90;;;;;;4980093;28;20435;-40
2023/01/21 05:20:17;;;;;;;9.37;4.80;;;1.80;99.90;;;;;;4979782;29;20463;-40
2023/01/21 05:22:46;;;;;;;9.00;3.50;;;1.80;99.90;;;;;;4979357;29;20424;-41
2023/01/21 05:25:13;;;;;;;4.43;2.93;;;1.90;99.90;;;;;;4979491;28;20447;-41
2023/01/21 05:27:40;;;;;;;4.53;2.80;;;1.90;99.90;;;;;;4980033;28;20468;-41
2023/01/21 05:30:08;;;;;;;6.53;4.20;;;1.90;99.90;;;;;;4979242;28;20439;-41
2023/01/21 05:32:35;;;;;;;10.50;3.70;;;1.90;99.90;;;;;;4979797;28;20432;-40
2023/01/21 05:35:04;;;;;;;6.50;3.40;;;1.90;99.90;;;;;;4979663;28;20480;-43
2023/01/21 05:37:30;;;;;;;10.30;4.50;;;1.90;99.90;;;;;;4979789;29;20447;-40
2023/01/21 05:39:57;;;;;;;8.40;4.00;;;1.90;99.90;;;;;;4979507;28;20486;-43
2023/01/21 05:42:24;;;;;;;6.47;3.90;;;1.90;99.90;;;;;;4979302;29;20468;-42
2023/01/21 05:44:51;;;;;;;6.17;3.37;;;2.00;99.90;;;;;;4979386;29;20463;-40
2023/01/21 05:47:18;;;;;;;9.23;3.37;;;2.00;99.90;;;;;;4978592;29;20857;-44
2023/01/21 05:49:44;;;;;;;7.27;3.83;;;2.10;99.90;;;;;;4979737;29;20444;-46
2023/01/21 05:52:13;;;;;;;6.10;3.70;;;2.10;99.90;;;;;;4979286;29;20527;-42
2023/01/21 05:54:39;;;;;;;6.47;3.70;;;2.10;99.90;;;;;;4979419;29;20515;-41
2023/01/21 05:57:06;;;;;;;8.10;4.40;;;2.10;99.90;;;;;;4979228;29;20448;-40
2023/01/21 05:59:33;;;;;;;9.33;4.80;;;2.10;99.90;;;;;;4979346;29;20424;-39
2023/01/21 06:02:00;;;;;;;6.10;3.80;;;2.10;99.90;;;;;;4979449;28;20499;-41
2023/01/21 06:04:29;;;;;;;7.37;3.50;;;2.10;99.90;;;;;;4979318;29;20463;-43
2023/01/21 06:06:56;;;;;;;9.67;4.20;;;2.10;99.90;;;;;;4979259;29;20452;-40
2023/01/21 06:09:25;;;;;;;7.27;4.30;;;2.10;99.90;;;;;;4979456;28;20444;-43
2023/01/21 06:11:51;;;;;;;7.37;4.80;;;2.10;99.90;;;;;;4979227;29;20436;-42
2023/01/21 06:14:18;;;;;;;9.03;4.37;;;2.10;99.90;;;;;;4978602;29;20452;-44
2023/01/21 06:16:45;;;;;;;13.67;4.20;;;2.20;99.90;;;;;;4978609;29;20451;-40
2023/01/21 06:19:12;;;;;;;10.20;5.13;;;2.20;99.90;;;;;;4978783;29;20507;-43
2023/01/21 06:21:39;;;;;;;8.67;4.43;;;2.20;99.90;;;;;;4978860;28;20435;-39
2023/01/21 06:24:06;;;;;;;7.13;4.10;;;2.20;99.90;;;;;;4979049;28;20440;-41
2023/01/21 06:26:34;;;;;;;13.63;3.70;;;2.20;99.90;;;;;;4968848;29;20552;-41
2023/01/21 06:29:01;;;;;;;12.40;6.30;;;2.30;99.90;;;;;;4976429;29;20471;-44
2023/01/21 06:31:31;;;;;;;16.03;6.07;;;2.40;99.90;;;;;;4978693;29;20436;-41
2023/01/21 06:33:58;;;;;;;8.67;4.77;;;2.40;99.90;;;;;;4978750;28;20428;-41
2023/01/21 06:36:25;;;;;;;13.90;5.10;;;2.40;99.90;;;;;;4978671;28;20531;-44
2023/01/21 06:38:51;;;;;;;11.87;5.50;;;2.40;99.90;;;;;;4978790;29;20479;-44
2023/01/21 06:41:18;;;;;;;9.67;4.17;;;2.40;99.90;;;;;;4980320;28;20506;-40
2023/01/21 06:43:49;;;;;;;13.60;4.10;;;2.40;99.90;;;;;;4982074;29;20455;-45
2023/01/21 06:46:16;;;;;;;18.20;6.17;;;2.40;99.90;;;;;;4982161;29;20408;-45
2023/01/21 06:48:43;;;;;;;15.10;5.93;;;2.40;99.90;;;;;;4982078;29;20451;-40
2023/01/21 06:51:10;;;;;;;15.27;4.93;;;2.40;99.90;;;;;;4982202;29;20472;-45
2023/01/21 06:53:36;;;;;;;14.43;5.43;;;2.40;99.90;;;;;;4982014;29;20499;-41
2023/01/21 06:56:04;;;;;;;14.50;5.60;;;2.40;99.90;;;;;;4981856;29;20471;-40
2023/01/21 06:58:31;;;;;;;10.60;7.00;;;2.40;99.90;;;;;;4982309;29;20479;-44
2023/01/21 07:00:59;;;;;;;9.17;6.43;;;2.40;99.90;;;;;;4982138;29;20424;-46
2023/01/21 07:03:26;;;;;;;10.90;7.00;;;2.40;99.90;;;;;;4982087;29;20459;-42
2023/01/21 07:05:52;;;;;;;10.40;6.50;;;2.50;99.90;;;;;;4982120;29;20537;-46
2023/01/21 07:08:19;;;;;;;12.07;6.00;;;2.40;99.90;;;;;;4981951;28;20483;-44
2023/01/21 07:10:47;;;;;;;22.30;7.63;;;2.40;99.90;;;;;;4981591;29;20455;-44
2023/01/21 07:13:14;;;;;;;14.90;6.53;;;2.40;99.90;;;;;;4981603;29;20447;-40
2023/01/21 07:15:41;;;;;;;34.40;7.93;;;2.40;99.90;;;;;;4981455;29;20498;-44
2023/01/21 07:18:09;;;;;;;11.33;6.03;;;2.40;99.90;;;;;;4981836;29;20451;-40
2023/01/21 07:20:37;;;;;;;16.90;7.30;;;2.40;99.90;;;;;;4982157;28;20478;-42
2023/01/21 07:23:04;;;;;;;10.10;5.77;;;2.30;99.90;;;;;;4981844;29;20451;-40
2023/01/21 07:25:32;;;;;;;15.37;6.13;;;2.40;99.90;;;;;;4981606;29;20444;-42
2023/01/21 07:27:59;;;;;;;9.80;5.63;;;2.40;99.90;;;;;;4980998;29;20471;-42
2023/01/21 07:30:25;;;;;;;10.57;6.20;;;2.40;99.90;;;;;;4981198;28;20428;-46
2023/01/21 07:32:52;;;;;;;12.40;6.97;;;2.40;99.90;;;;;;4981124;29;20462;-43
2023/01/21 07:35:20;;;;;;;15.87;8.83;;;2.40;99.90;;;;;;4981476;29;20512;-44
2023/01/21 07:37:47;;;;;;;11.50;6.47;;;2.40;99.90;;;;;;4981310;29;20456;-44
2023/01/21 07:40:14;;;;;;;15.23;8.13;;;2.40;99.90;;;;;;4981306;29;20446;-42
2023/01/21 07:42:41;;;;;;;18.40;7.47;;;2.40;99.90;;;;;;4981048;28;20451;-43
2023/01/21 07:45:09;;;;;;;17.40;7.93;;;2.40;99.90;;;;;;4981090;29;20435;-41
2023/01/21 07:47:35;;;;;;;14.17;6.83;;;2.40;99.90;;;;;;4981241;29;20452;-46
2023/01/21 07:50:07;;;;;;;15.80;7.20;;;2.50;99.90;;;;;;4981487;29;20471;-43
2023/01/21 07:52:35;;;;;;;15.90;8.70;;;2.50;99.90;;;;;;4980165;28;20484;-42
2023/01/21 07:55:02;;;;;;;14.20;7.97;;;2.40;99.90;;;;;;4968489;29;20478;-44
2023/01/21 07:57:29;;;;;;;11.00;7.70;;;2.50;99.90;;;;;;4980322;29;20451;-44
2023/01/21 07:59:57;;;;;;;14.03;6.97;;;2.50;99.90;;;;;;4980672;28;20455;-40
2023/01/21 08:02:24;;;;;;;16.67;7.73;;;2.50;99.90;;;;;;4980772;29;20443;-44
2023/01/21 08:04:51;;;;;;;17.47;8.40;;;2.50;99.90;;;;;;4980686;29;20570;-43
2023/01/21 08:07:18;;;;;;;11.20;6.00;;;2.50;99.90;;;;;;4981069;29;20492;-42
2023/01/21 08:09:46;;;;;;;13.27;7.27;;;2.60;99.90;;;;;;4980757;29;20451;-47
2023/01/21 08:12:13;;;;;;;13.90;7.33;;;2.50;99.90;;;;;;4980622;29;20466;-41
2023/01/21 08:14:40;;;;;;;16.17;6.97;;;2.50;99.90;;;;;;4980559;29;20446;-44
2023/01/21 08:17:07;;;;;;;13.03;7.57;;;2.60;99.90;;;;;;4980578;29;20515;-40
2023/01/21 08:19:33;;;;;;;12.40;7.10;;;2.50;99.90;;;;;;4980759;29;20479;-45
2023/01/21 08:22:02;;;;;;;17.10;8.23;;;2.60;99.90;;;;;;4980319;28;20436;-40
2023/01/21 08:24:29;;;;;;;12.10;7.60;;;2.50;99.90;;;;;;4980585;29;20431;-44
2023/01/21 08:26:59;;;;;;;16.10;8.17;;;2.50;99.90;;;;;;4979834;29;20436;-42
2023/01/21 08:29:26;;;;;;;11.37;6.40;;;2.60;99.90;;;;;;4980459;29;20495;-44
2023/01/21 08:31:53;;;;;;;18.03;8.87;;;2.60;99.90;;;;;;4980136;29;20454;-49
2023/01/21 08:34:20;;;;;;;24.90;9.63;;;2.60;99.90;;;;;;4980146;29;20536;-44
2023/01/21 08:36:47;;;;;;;13.43;7.33;;;2.60;99.90;;;;;;4980080;29;20504;-41
2023/01/21 08:39:15;;;;;;;17.20;7.80;;;2.60;99.90;;;;;;4979964;29;20492;-40
2023/01/21 08:41:42;;;;;;;15.43;6.80;;;2.60;99.90;;;;;;4980113;29;20471;-40
2023/01/21 08:44:11;;;;;;;14.40;7.93;;;2.70;99.90;;;;;;4979868;29;20456;-42
2023/01/21 08:46:38;;;;;;;14.03;7.70;;;2.70;99.90;;;;;;4979785;29;20451;-43
2023/01/21 08:49:05;;;;;;;18.13;7.70;;;2.80;99.90;;;;;;4979688;29;20434;-44
2023/01/21 08:51:32;;;;;;;15.67;7.97;;;2.80;99.90;;;;;;4980039;29;20552;-41
2023/01/21 08:53:59;;;;;;;11.53;6.57;;;2.90;99.90;;;;;;4980147;29;20459;-42
2023/01/21 08:56:26;;;;;;;15.30;6.90;;;2.90;99.90;;;;;;4979817;29;20550;-42
2023/01/21 08:58:54;;;;;;;8.47;5.83;;;3.00;99.90;;;;;;4980671;29;20432;-41
2023/01/21 09:01:24;;;;;;;15.70;7.50;;;3.00;99.90;;;;;;4979942;29;20523;-41
2023/01/21 09:03:54;;;;;;;11.43;5.80;;;3.00;99.90;;;;;;4979244;28;20443;-44
2023/01/21 09:06:22;;;;;;;10.90;8.40;;;3.00;99.90;;;;;;4979075;29;20447;-40
2023/01/21 09:08:49;;;;;;;11.00;6.70;;;2.90;99.90;;;;;;4979162;29;20498;-41
2023/01/21 09:11:17;;;;;;;11.23;5.93;;;3.00;99.90;;;;;;4980102;29;20448;-42
2023/01/21 09:13:44;;;;;;;15.27;6.83;;;3.00;99.90;;;;;;4979515;29;20452;-39
2023/01/21 09:16:14;;;;;;;11.10;6.33;;;3.10;99.90;;;;;;4980057;29;20490;-42
2023/01/21 09:18:43;;;;;;;13.40;6.87;;;3.10;99.90;;;;;;4979981;29;20435;-42
2023/01/21 09:21:11;;;;;;;13.30;8.03;;;3.00;99.90;;;;;;4979836;29;20452;-43
2023/01/21 09:23:38;;;;;;;13.07;7.07;;;3.00;99.90;;;;;;4979600;29;20444;-41
2023/01/21 09:26:07;;;;;;;12.03;7.03;;;3.10;99.90;;;;;;4979346;29;20468;-48
2023/01/21 09:28:38;;;;;;;15.10;7.23;;;3.10;99.90;;;;;;4979437;29;20428;-46
2023/01/21 09:31:10;;;;;;;12.13;6.70;;;3.20;99.90;;;;;;4978665;29;20494;-42
2023/01/21 09:33:39;;;;;;;13.00;5.70;;;3.20;99.90;;;;;;4978822;29;20477;-43
2023/01/21 09:36:10;;;;;;;11.07;7.40;;;3.30;99.90;;;;;;4978399;29;20530;-46
2023/01/21 09:38:37;;;;;;;12.73;6.43;;;3.30;99.90;;;;;;4978684;29;20456;-43
2023/01/21 09:41:15;;;;;;;13.87;6.90;;;3.40;99.90;;;;;;4978634;29;20474;-42
2023/01/21 09:43:46;;;;;;;12.90;7.10;;;3.40;99.90;;;;;;4978505;29;20495;-43
2023/01/21 09:46:17;;;;;;;19.77;7.87;;;3.40;99.90;;;;;;4978726;29;20439;-41
2023/01/21 09:48:48;;;;;;;14.47;8.17;;;3.40;99.90;;;;;;4979226;29;20449;-39
2023/01/21 09:51:25;;;;;;;17.33;7.60;;;3.40;99.90;;;;;;4978788;29;20452;-42
2023/01/21 09:53:54;;;;;;;14.20;7.27;;;3.40;99.90;;;;;;4978626;29;20455;-42
2023/01/21 09:56:27;;;;;;;17.00;7.43;;;3.40;99.90;;;;;;4978016;29;20518;-41
2023/01/21 09:59:01;;;;;;;14.50;7.20;;;3.50;99.90;;;;;;4978001;29;20447;-42
2023/01/21 10:01:33;;;;;;;17.03;8.00;;;3.50;99.90;;;;;;4978460;29;20439;-44
2023/01/21 10:04:04;;;;;;;16.43;7.77;;;3.50;99.90;;;;;;4978663;29;20909;-44
2023/01/21 10:06:41;;;;;;;13.73;6.80;;;3.50;99.90;;;;;;4978239;29;20496;-42
2023/01/21 10:09:33;;;;;;;12.73;7.00;;;3.60;99.90;;;;;;4978396;29;20459;-43
2023/01/21 10:12:16;;;;;;;16.07;8.57;;;3.60;99.90;;;;;;4978238;29;20416;-42
2023/01/21 10:14:55;;;;;;;20.67;7.20;;;3.60;99.90;;;;;;4978195;28;20482;-44
2023/01/21 10:17:34;;;;;;;15.33;8.13;;;3.60;99.90;;;;;;4981335;29;20504;-43
2023/01/21 10:20:11;;;;;;;12.20;8.67;;;3.60;99.90;;;;;;4981538;29;20432;-45
2023/01/21 10:22:42;;;;;;;15.30;7.60;;;3.70;99.90;;;;;;4981932;29;20432;-43
2023/01/21 10:25:18;;;;;;;17.23;8.03;;;3.70;99.90;;;;;;4982425;29;20430;-44
2023/01/21 10:27:46;;;;;;;25.40;8.80;;;3.70;99.90;;;;;;4981615;29;20434;-45
2023/01/21 10:30:22;;;;;;;12.97;7.57;;;3.70;99.90;;;;;;4982295;29;20429;-42
2023/01/21 10:32:51;;;;;;;16.63;7.83;;;3.80;99.90;;;;;;4969556;29;20496;-43
2023/01/21 10:35:23;;;;;;;17.00;7.13;;;3.70;99.90;;;;;;4981203;29;20460;-45
2023/01/21 10:38:01;;;;;;;14.70;7.03;;;3.60;99.90;;;;;;4981343;29;20444;-41
2023/01/21 10:40:45;;;;;;;17.00;7.50;;;3.60;99.90;;;;;;4981451;29;20420;-40
2023/01/21 10:43:21;;;;;;;17.43;7.13;;;3.60;99.90;;;;;;4981675;29;20425;-42
2023/01/21 10:45:56;;;;;;;15.80;6.60;;;3.60;99.90;;;;;;4981204;29;20408;-41
2023/01/21 10:48:34;;;;;;;12.40;6.50;;;3.70;99.90;;;;;;4981656;29;20466;-43
2023/01/21 10:51:06;;;;;;;11.67;6.00;;;3.80;99.90;;;;;;4981464;29;20431;-40
2023/01/21 10:53:39;;;;;;;12.03;6.23;;;3.90;99.90;;;;;;4981704;29;20494;-46
2023/01/21 10:56:18;;;;;;;11.80;5.97;;;4.00;99.90;;;;;;4981172;29;20488;-41
2023/01/21 10:58:50;;;;;;;11.17;7.30;;;4.10;99.90;;;;;;4981876;29;20487;-43
2023/01/21 11:01:22;;;;;;;17.73;7.37;;;4.10;99.90;;;;;;4981480;29;20455;-42
2023/01/21 11:03:53;;;;;;;17.63;7.83;;;4.20;99.90;;;;;;4979530;29;20500;-45
2023/01/21 11:06:22;;;;;;;9.60;6.10;;;4.20;99.90;;;;;;4976071;29;20435;-42
2023/01/21 11:08:54;;;;;;;12.20;6.70;;;4.20;99.90;;;;;;4981480;29;20470;-44
2023/01/21 11:11:26;;;;;;;15.27;8.13;;;4.30;99.90;;;;;;4980416;29;20498;-41
2023/01/21 11:13:54;;;;;;;10.57;7.33;;;4.40;99.90;;;;;;4970920;29;20466;-42
2023/01/21 11:16:45;;;;;;;12.30;6.83;;;4.50;99.90;;;;;;4981909;29;20468;-41
2023/01/21 11:19:14;;;;;;;10.47;6.23;;;4.50;99.90;;;;;;4979144;29;20507;-42
2023/01/21 11:21:56;;;;;;;12.90;6.23;;;4.60;99.90;;;;;;4965998;29;20436;-42
2023/01/21 11:24:25;;;;;;;12.90;6.03;;;4.60;99.90;;;;;;4981706;29;20523;-41
2023/01/21 11:26:53;;;;;;;8.87;5.90;;;4.60;99.90;;;;;;4981222;28;20439;-39
2023/01/21 11:29:21;;;;;;;12.00;5.70;;;4.70;99.90;;;;;;4981154;29;20464;-44
2023/01/21 11:31:50;;;;;;;13.50;6.90;;;4.70;99.90;;;;;;4981320;29;20464;-43
2023/01/21 11:34:19;;;;;;;13.23;6.43;;;4.80;99.90;;;;;;4981450;29;20459;-41
2023/01/21 11:37:00;;;;;;;11.93;7.30;;;4.80;99.90;;;;;;4981212;29;20472;-42
2023/01/21 11:39:32;;;;;;;14.50;7.10;;;4.90;99.90;;;;;;4980705;29;20423;-41
2023/01/21 11:42:06;;;;;;;10.83;5.60;;;4.90;99.90;;;;;;4981119;29;20456;-41
2023/01/21 11:44:34;;;;;;;20.23;6.53;;;5.00;99.90;;;;;;4968595;29;20460;-43
2023/01/21 11:47:01;;;;;;;14.60;6.77;;;5.00;99.90;;;;;;4979405;29;20439;-42
2023/01/21 11:49:31;;;;;;;24.57;6.70;;;4.90;99.90;;;;;;4979513;29;20436;-40
2023/01/21 11:52:18;;;;;;;12.57;6.10;;;4.90;99.90;;;;;;4979993;28;20459;-41
2023/01/21 11:54:47;;;;;;;10.23;6.10;;;5.00;99.90;;;;;;4979839;29;20460;-40
2023/01/21 11:57:26;;;;;;;10.93;6.93;;;5.00;99.90;;;;;;4979806;29;20479;-42
2023/01/21 11:59:57;;;;;;;11.00;7.03;;;4.90;99.90;;;;;;4981082;28;20460;-41
2023/01/21 12:02:28;;;;;;;20.40;7.27;;;5.00;99.90;;;;;;4980317;29;20452;-43
2023/01/21 12:04:59;;;;;;;12.17;6.50;;;5.00;99.90;;;;;;4980033;29;20432;-43
2023/01/21 12:07:30;;;;;;;7.97;4.43;;;4.90;99.90;;;;;;4981158;29;20447;-46
2023/01/21 12:10:04;;;;;;;14.47;6.20;;;4.90;99.90;;;;;;4980924;29;20419;-43
2023/01/21 12:12:51;;;;;;;12.17;6.10;;;4.80;99.90;;;;;;4971845;29;20431;-42
2023/01/21 12:15:29;;;;;;;11.03;5.67;;;4.90;99.90;;;;;;4961048;29;20441;-42
2023/01/21 12:18:08;;;;;;;11.60;6.07;;;5.00;99.90;;;;;;4961399;29;20519;-42
2023/01/21 12:20:42;;;;;;;8.43;4.47;;;4.90;99.90;;;;;;4961127;29;20484;-40
2023/01/21 12:23:30;;;;;;;10.30;5.03;;;4.90;99.90;;;;;;4960042;29;20460;-42
2023/01/21 12:26:12;;;;;;;10.00;5.83;;;5.00;99.90;;;;;;4960613;29;20476;-38
2023/01/21 12:28:55;;;;;;;11.53;4.97;;;5.00;99.90;;;;;;4961317;29;20449;-43
2023/01/21 12:31:28;;;;;;;8.37;4.40;;;5.00;99.90;;;;;;4960706;29;20500;-39
2023/01/21 12:34:05;;;;;;;11.33;6.40;;;5.00;99.90;;;;;;4960720;29;20421;-42
2023/01/21 12:36:38;;;;;;;9.40;5.33;;;5.10;99.90;;;;;;4960436;29;20510;-43
2023/01/21 12:39:14;;;;;;;6.67;4.57;;;5.10;99.90;;;;;;4959640;29;20457;-43
2023/01/21 12:41:44;;;;;;;12.20;5.43;;;5.20;99.90;;;;;;4959716;29;20468;-41
2023/01/21 12:44:24;;;;;;;10.67;4.90;;;5.20;99.90;;;;;;4959724;29;20472;-48
2023/01/21 12:46:58;;;;;;;6.93;3.60;;;5.20;99.90;;;;;;4959832;29;20453;-42
2023/01/21 12:49:29;;;;;;;10.17;4.73;;;5.30;99.90;;;;;;4960330;29;20460;-40
2023/01/21 12:52:01;;;;;;;5.57;4.17;;;5.30;99.90;;;;;;4960271;29;20484;-41
2023/01/21 12:54:38;;;;;;;8.73;4.50;;;5.20;99.90;;;;;;4954749;29;20428;-40
2023/01/21 12:57:13;;;;;;;6.90;3.80;;;5.30;99.90;;;;;;4960317;29;20493;-41
2023/01/21 12:59:44;;;;;;;6.20;3.40;;;5.30;99.90;;;;;;4960425;29;20421;-42
2023/01/21 13:02:22;;;;;;;7.17;4.20;;;5.20;99.90;;;;;;4959681;29;20456;-44
2023/01/21 13:04:56;;;;;;;30.03;4.23;;;5.20;99.90;;;;;;4959077;29;20420;-42
2023/01/21 13:07:37;;;;;;;4.00;3.17;;;5.20;99.90;;;;;;4959990;29;20483;-44
2023/01/21 13:10:14;;;;;;;5.57;4.07;;;5.20;99.90;;;;;;4959678;29;20448;-42
2023/01/21 13:12:46;;;;;;;4.60;3.10;;;5.20;99.90;;;;;;4959743;29;20460;-40